| time (UTC) | temp F | wind direction | speed knots | gust knots | rain 1hr in | rain 24hr in | rain mn in | humidity % | barometer mb |
| 20260507033210 | 54 | 0 | 0.9 | 0.0 | 0.00 | 0.00 | 0.00 | 93 | 1008.0 |
| 20260507031942 | 54 | 0 | 0.0 | 0.0 | 0.00 | 0.00 | 0.00 | 93 | |
| 20260507030224 | 54 | 0 | 0.0 | 0.0 | 0.00 | 0.00 | 0.00 | 93 | 1008.0 |
| 20260507023209 | 52 | 270 | 6.1 | 0.0 | 0.00 | 0.00 | 0.00 | 100 | 1008.0 |
| 20260507021941 | 54 | 270 | 6.1 | 0.0 | 0.00 | 0.00 | 0.00 | 93 | |
| 20260507020224 | 52 | 270 | 6.1 | 0.0 | 0.00 | 0.00 | 0.00 | 93 | 1008.0 |
| 20260507013209 | 54 | 200 | 2.6 | 0.0 | 0.00 | 0.00 | 0.00 | 93 | 1007.0 |
| 20260507012041 | 54 | 210 | 4.3 | 0.0 | 0.00 | 0.00 | 0.00 | 93 | |
| 20260507010226 | 54 | 220 | 4.3 | 0.0 | 0.00 | 0.00 | 0.00 | 93 | 1007.0 |
| 20260507003209 | 55 | 0 | 4.3 | 0.0 | 0.00 | 0.00 | 0.00 | 93 | 1006.0 |
| 20260507001942 | 55 | 220 | 4.3 | 0.0 | 0.00 | 0.00 | 0.00 | 93 | |
| 20260507000219 | 55 | 270 | 5.2 | 0.0 | 0.00 | 0.00 | 0.00 | 93 | 1007.0 |
| 20260506233210 | 57 | 20 | 4.3 | 0.0 | 0.00 | 0.00 | 0.00 | 87 | 1006.0 |
| 20260506231942 | 57 | 350 | 4.3 | 0.0 | 0.00 | 0.00 | 0.00 | 87 | |
| 20260506230225 | 57 | 330 | 4.3 | 0.0 | 0.00 | 0.00 | 0.00 | 82 | 1006.0 |
| 20260506223209 | 57 | 280 | 13.0 | 0.0 | 0.00 | 0.00 | 0.00 | 87 | 1006.0 |
| 20260506222142 | 57 | 270 | 15.6 | 0.0 | 0.00 | 0.00 | 0.00 | 87 | |
| 20260506220224 | 55 | 0 | 1.7 | 0.0 | 0.00 | 0.00 | 0.00 | 87 | 1005.0 |
| 20260506214304 | 55 | 280 | 5.2 | 0.0 | 0.00 | 0.00 | 0.00 | 87 | 1006.0 |
| 20260506213210 | 55 | 310 | 5.2 | 0.0 | 0.00 | 0.00 | 0.00 | 87 | 1005.0 |
| 20260506212012 | 55 | 310 | 2.6 | 0.0 | 0.00 | 0.00 | 0.00 | 87 | 1005.0 |
| 20260506211942 | 55 | 310 | 6.1 | 0.0 | 0.00 | 0.00 | 0.00 | 87 | |
| 20260506211703 | 55 | 310 | 4.3 | 0.0 | 0.00 | 0.00 | 0.00 | 87 | 1005.0 |
| 20260506210219 | 55 | 0 | 0.9 | 0.0 | 0.00 | 0.00 | 0.00 | 87 | 1005.0 |
| 20260506203208 | 55 | 140 | 5.2 | 0.0 | 0.00 | 0.00 | 0.00 | 87 | 1005.0 |
| 20260506202026 | 55 | 140 | 6.1 | 0.0 | 0.00 | 0.00 | 0.00 | 87 | |
| 20260506200224 | 55 | 120 | 4.3 | 0.0 | 0.00 | 0.00 | 0.00 | 87 | 1005.0 |
| 20260506193217 | 57 | 110 | 2.6 | 0.0 | 0.00 | 0.00 | 0.00 | 82 | 1005.0 |
| 20260506192133 | 57 | 70 | 4.3 | 0.0 | 0.00 | 0.00 | 0.00 | 82 | |
| 20260506190239 | 57 | 60 | 4.3 | 0.0 | 0.00 | 0.00 | 0.00 | 82 | 1004.0 |
| 20260506183231 | 59 | 360 | 4.3 | 0.0 | 0.00 | 0.00 | 0.00 | 82 | 1004.0 |
| 20260506182403 | 59 | 30 | 6.1 | 0.0 | 0.00 | 0.00 | 0.00 | 77 | 1004.0 |
| 20260506182033 | 59 | 360 | 4.3 | 0.0 | 0.00 | 0.00 | 0.00 | 82 | |
| 20260506180233 | 63 | 330 | 5.2 | 0.0 | 0.00 | 0.00 | 0.00 | 72 | 1005.0 |
| 20260506173902 | 63 | 330 | 7.0 | 0.0 | 0.00 | 0.00 | 0.00 | 72 | 1004.0 |
| 20260506173224 | 63 | 60 | 5.2 | 0.0 | 0.00 | 0.00 | 0.00 | 82 | 1004.0 |
| 20260506171941 | 63 | 70 | 6.1 | 0.0 | 0.00 | 0.00 | 0.00 | 77 | |
| 20260506171808 | 63 | 0 | 4.3 | 0.0 | 0.00 | 0.00 | 0.00 | 82 | 1005.0 |
| 20260506170219 | 63 | 60 | 5.2 | 0.0 | 0.00 | 0.00 | 0.00 | 82 | 1004.0 |
| 20260506163217 | 63 | 60 | 7.0 | 0.0 | 0.00 | 0.00 | 0.00 | 77 | 1004.0 |
| 20260506162158 | 63 | 90 | 7.8 | 0.0 | 0.00 | 0.00 | 0.00 | 82 | |
| 20260506160226 | 63 | 90 | 7.8 | 0.0 | 0.00 | 0.00 | 0.00 | 82 | 1004.0 |
| 20260506153802 | 64 | 70 | 4.3 | 0.0 | 0.00 | 0.00 | 0.00 | 77 | 1004.0 |
| 20260506153217 | 64 | 340 | 4.3 | 0.0 | 0.00 | 0.00 | 0.00 | 72 | 1005.0 |
| 20260506152025 | 64 | 350 | 4.3 | 0.0 | 0.00 | 0.00 | 0.00 | 72 | |
| 20260506150225 | 63 | 20 | 2.6 | 0.0 | 0.00 | 0.00 | 0.00 | 88 | 1005.0 |
| 20260506145904 | 64 | 350 | 4.3 | 0.0 | 0.00 | 0.00 | 0.00 | 72 | 1004.0 |
| 20260506143224 | 68 | 350 | 2.6 | 0.0 | 0.00 | 0.00 | 0.00 | 60 | 1005.0 |
| 20260506141958 | 68 | 340 | 4.3 | 0.0 | 0.00 | 0.00 | 0.00 | 60 | |
| 20260506141808 | 68 | 20 | 2.6 | 0.0 | 0.00 | 0.00 | 0.00 | 56 | 1005.0 |
| 20260506140225 | 68 | 310 | 5.2 | 0.0 | 0.00 | 0.00 | 0.00 | 56 | 1005.0 |
| 20260506133224 | 68 | 170 | 7.0 | 0.0 | 0.00 | 0.00 | 0.00 | 52 | 1005.0 |
| 20260506132307 | 70 | 0 | 5.2 | 0.0 | 0.00 | 0.00 | 0.00 | 49 | 1005.0 |
| 20260506131958 | 73 | 310 | 4.3 | 0.0 | 0.00 | 0.00 | 0.00 | 38 | |
| 20260506131809 | 72 | 320 | 2.6 | 0.0 | 0.00 | 0.00 | 0.00 | 43 | 1005.0 |
| 20260506130219 | 72 | 260 | 6.1 | 0.0 | 0.00 | 0.00 | 0.00 | 40 | 1006.0 |
| 20260506123216 | 72 | 180 | 5.2 | 0.0 | 0.00 | 0.00 | 0.00 | 40 | 1006.0 |
| 20260506121957 | 75 | 210 | 4.3 | 0.0 | 0.00 | 0.00 | 0.00 | 36 | |
| 20260506120225 | 72 | 0 | 4.3 | 0.0 | 0.00 | 0.00 | 0.00 | 43 | 1006.0 |
| 20260506113216 | 72 | 0 | 4.3 | 0.0 | 0.00 | 0.00 | 0.00 | 43 | 1006.0 |
| 20260506111943 | 72 | 190 | 4.3 | 0.0 | 0.00 | 0.00 | 0.00 | 40 | |
| 20260506110218 | 68 | 260 | 6.1 | 0.0 | 0.00 | 0.00 | 0.00 | 49 | 1007.0 |
| 20260506103216 | 70 | 240 | 8.7 | 0.0 | 0.00 | 0.00 | 0.00 | 49 | 1007.0 |
| 20260506102144 | 70 | 240 | 10.4 | 0.0 | 0.00 | 0.00 | 0.00 | 46 | |
| 20260506100221 | 68 | 220 | 11.3 | 0.0 | 0.00 | 0.00 | 0.00 | 49 | 1007.0 |
| 20260506093217 | 68 | 260 | 11.3 | 0.0 | 0.00 | 0.00 | 0.00 | 45 | 1007.0 |
| 20260506091943 | 68 | 260 | 12.2 | 0.0 | 0.00 | 0.00 | 0.00 | 45 | |
| 20260506090220 | 66 | 230 | 12.2 | 0.0 | 0.00 | 0.00 | 0.00 | 52 | 1007.0 |
| 20260506083216 | 64 | 250 | 12.2 | 0.0 | 0.00 | 0.00 | 0.00 | 55 | 1007.0 |
| 20260506081941 | 64 | 250 | 12.2 | 0.0 | 0.00 | 0.00 | 0.00 | 55 | |
| 20260506080227 | 66 | 250 | 11.3 | 0.0 | 0.00 | 0.00 | 0.00 | 55 | 1007.0 |
| 20260506073216 | 63 | 260 | 13.0 | 0.0 | 0.00 | 0.00 | 0.00 | 63 | 1007.0 |
| 20260506071943 | 63 | 260 | 12.2 | 0.0 | 0.00 | 0.00 | 0.00 | 63 | |
| 20260506070226 | 63 | 250 | 11.3 | 0.0 | 0.00 | 0.00 | 0.00 | 63 | 1007.0 |
| 20260506061944 | 61 | 250 | 10.4 | 0.0 | 0.00 | 0.00 | 0.00 | 67 | |
| 20260506060219 | 61 | 250 | 8.7 | 0.0 | 0.00 | 0.00 | 0.00 | 67 | 1007.0 |
| 20260506050225 | 59 | 250 | 7.0 | 0.0 | 0.00 | 0.00 | 0.00 | 77 | 1007.0 |
| 20260506043210 | 54 | 0 | 0.0 | 0.0 | 0.00 | 0.00 | 0.00 | 93 | 1006.0 |
| 20260506042142 | 55 | 240 | 1.7 | 0.0 | 0.00 | 0.00 | 0.00 | 87 | |
| 20260506040220 | 54 | 260 | 1.7 | 0.0 | 0.00 | 0.00 | 0.00 | 87 | 1006.0 |